Lissie, Texas
Current Conditions -  °F | °C
As of 2:55 PM on Tuesday 21 Oct 2014 (Local Time) from KELA Reporting Station
Clear Clear  
Wind Chill: 82°   Ceiling: Unl
Heat Index: 82°   Visibility: 10mi
Dew Point: 49°   Wind: 6mph
Humidity: 31%   Direction: 80°E
Pressure: 29.98"   Gusts: 16mph
Location:  29.56°N, 96.23°W
Report Text: KELA 211955Z AUTO 08005G14KT 10SM CLR 28/10 A2998 RMK AO2 T02800095
Loading
Personal Weather Stations






























Interactive Weather Map
Tropical Storm Tracking
New forecast layout! Learn more

10-Day Weather Forecast

Advertisements
Track Severe Weather on mobile